createdAt,value
2018-06-09T00:01:07.769Z,18.10
2018-06-09T00:03:42.422Z,18.10
2018-06-09T00:06:16.873Z,18.10
2018-06-09T00:08:51.656Z,18.10
2018-06-09T00:11:26.558Z,18.00
2018-06-09T00:14:01.989Z,18.00
2018-06-09T00:16:37.369Z,18.00
2018-06-09T00:19:11.548Z,18.00
2018-06-09T00:21:46.293Z,18.00
2018-06-09T00:24:20.858Z,17.90
2018-06-09T00:26:55.710Z,17.90
2018-06-09T00:29:30.314Z,17.90
2018-06-09T00:32:05.046Z,17.90
2018-06-09T00:34:39.600Z,17.90
2018-06-09T00:37:15.373Z,17.90
2018-06-09T00:39:49.946Z,17.80
2018-06-09T00:42:24.836Z,17.90
2018-06-09T00:44:59.870Z,17.90
2018-06-09T00:50:09.159Z,18.00
2018-06-09T00:52:43.712Z,18.00
2018-06-09T00:55:18.236Z,18.00
2018-06-09T00:57:52.931Z,18.10
2018-06-09T01:00:27.262Z,18.10
2018-06-09T01:03:02.088Z,18.10
2018-06-09T01:05:36.844Z,18.10
2018-06-09T01:08:12.559Z,18.10
2018-06-09T01:10:47.466Z,18.10
2018-06-09T01:13:22.472Z,18.10
2018-06-09T01:15:56.830Z,18.00
2018-06-09T01:18:31.975Z,18.00
2018-06-09T01:21:06.160Z,18.00
2018-06-09T01:23:41.049Z,18.00
2018-06-09T01:26:15.682Z,18.00
2018-06-09T01:28:50.834Z,17.90
2018-06-09T01:31:25.156Z,17.90
2018-06-09T01:33:59.632Z,17.80
2018-06-09T01:36:34.041Z,17.80
2018-06-09T01:39:09.092Z,17.80
2018-06-09T01:41:43.361Z,17.90
2018-06-09T01:44:18.158Z,17.80
2018-06-09T01:46:53.015Z,17.80
2018-06-09T01:49:27.912Z,17.80
2018-06-09T01:52:02.583Z,17.70
2018-06-09T01:54:37.845Z,17.70
2018-06-09T01:57:12.001Z,17.70
2018-06-09T01:59:46.931Z,17.70
2018-06-09T02:02:21.433Z,17.70
2018-06-09T02:04:56.179Z,17.60
2018-06-09T02:07:30.634Z,17.70
2018-06-09T02:10:05.600Z,17.60
2018-06-09T02:12:40.005Z,17.60
2018-06-09T02:15:14.979Z,17.60
2018-06-09T02:17:49.837Z,17.60
2018-06-09T02:20:24.508Z,17.60
2018-06-09T02:22:59.428Z,17.60
2018-06-09T02:25:34.552Z,17.50
2018-06-09T02:28:09.802Z,17.50
2018-06-09T02:30:44.907Z,17.50
2018-06-09T02:33:19.462Z,17.50
2018-06-09T02:35:53.950Z,17.50
2018-06-09T02:38:28.678Z,17.50
2018-06-09T02:41:03.338Z,17.50
2018-06-09T02:43:38.079Z,17.40
2018-06-09T02:46:13.262Z,17.40
2018-06-09T02:48:47.383Z,17.50
2018-06-09T02:51:22.344Z,17.50
2018-06-09T02:53:57.066Z,17.40
2018-06-09T02:56:31.466Z,17.40
2018-06-09T02:59:06.180Z,17.40
2018-06-09T03:01:41.860Z,17.40
2018-06-09T03:04:16.313Z,17.40
2018-06-09T03:06:50.942Z,17.40
2018-06-09T03:09:25.719Z,17.40
2018-06-09T03:12:00.329Z,17.40
2018-06-09T03:14:35.111Z,17.40
2018-06-09T03:17:09.908Z,17.40
2018-06-09T03:19:44.212Z,17.40
2018-06-09T03:22:19.164Z,17.40
2018-06-09T03:24:53.450Z,17.30
2018-06-09T03:27:28.069Z,17.30
2018-06-09T03:30:03.021Z,17.40
2018-06-09T03:32:37.361Z,17.40
2018-06-09T03:35:11.919Z,17.40
2018-06-09T03:37:46.874Z,17.40
2018-06-09T03:40:21.177Z,17.40
2018-06-09T03:42:55.954Z,17.40
2018-06-09T03:45:30.710Z,17.40
2018-06-09T03:48:05.538Z,17.40
2018-06-09T03:50:39.846Z,17.40
2018-06-09T03:53:14.687Z,17.40
2018-06-09T03:55:49.393Z,17.40
2018-06-09T03:58:26.346Z,17.40
2018-06-09T04:01:00.677Z,17.40
2018-06-09T04:03:35.098Z,17.50
2018-06-09T04:06:09.670Z,17.50
2018-06-09T04:08:44.452Z,17.60
2018-06-09T04:11:19.198Z,17.60
2018-06-09T04:13:54.049Z,17.70
2018-06-09T04:16:28.261Z,17.70
2018-06-09T04:19:03.872Z,17.80
2018-06-09T04:21:38.533Z,17.90
2018-06-09T04:24:13.174Z,18.00
2018-06-09T04:26:47.933Z,18.10
2018-06-09T04:29:22.771Z,18.20
2018-06-09T04:31:57.686Z,18.30
2018-06-09T04:34:32.694Z,18.40
2018-06-09T04:37:07.006Z,18.50
2018-06-09T04:39:41.647Z,18.50
2018-06-09T04:42:16.009Z,18.60
2018-06-09T04:44:50.161Z,18.70
2018-06-09T04:47:24.933Z,18.70
2018-06-09T04:49:59.493Z,18.80
2018-06-09T04:52:34.812Z,18.90
2018-06-09T04:55:09.741Z,19.00
2018-06-09T04:57:44.539Z,19.10
2018-06-09T05:00:19.705Z,19.20
2018-06-09T05:02:54.278Z,19.30
2018-06-09T05:05:28.678Z,19.40
2018-06-09T05:08:03.342Z,19.40
2018-06-09T05:10:38.035Z,19.60
2018-06-09T05:13:12.695Z,19.70
2018-06-09T05:15:47.340Z,19.80
2018-06-09T05:18:21.911Z,19.90
2018-06-09T05:20:56.780Z,20.00
2018-06-09T05:23:31.324Z,20.20
2018-06-09T05:26:06.081Z,20.40
2018-06-09T05:28:40.871Z,20.60
2018-06-09T05:31:15.259Z,20.90
2018-06-09T05:33:49.895Z,21.30
2018-06-09T05:36:24.633Z,21.90
2018-06-09T05:38:59.329Z,22.70
2018-06-09T05:41:34.165Z,23.60
2018-06-09T05:44:08.703Z,24.40
2018-06-09T05:46:43.405Z,25.00
2018-06-09T05:49:18.236Z,25.20
2018-06-09T05:51:52.755Z,25.40
2018-06-09T05:54:27.428Z,25.60
2018-06-09T05:57:02.268Z,25.90
2018-06-09T06:02:11.309Z,26.20
2018-06-09T06:04:45.933Z,26.30
2018-06-09T06:07:20.576Z,26.30
2018-06-09T06:09:55.295Z,26.50
2018-06-09T06:12:29.549Z,26.80
2018-06-09T06:15:04.177Z,27.00
2018-06-09T06:17:38.946Z,27.00
2018-06-09T06:20:13.376Z,27.00
2018-06-09T06:22:48.095Z,27.20
2018-06-09T06:25:22.697Z,27.60
2018-06-09T06:27:57.410Z,27.90
2018-06-09T06:30:32.119Z,28.20
2018-06-09T06:33:06.532Z,28.50
2018-06-09T06:35:40.992Z,28.80
2018-06-09T06:38:16.237Z,29.00
2018-06-09T06:40:50.625Z,29.30
2018-06-09T06:43:25.445Z,29.50
2018-06-09T06:45:59.965Z,29.70
2018-06-09T06:48:34.688Z,29.80
2018-06-09T06:51:09.399Z,29.90
2018-06-09T06:53:43.979Z,30.00
2018-06-09T06:56:18.676Z,30.20
2018-06-09T06:58:53.200Z,30.40
2018-06-09T07:01:27.748Z,30.60
2018-06-09T07:04:02.503Z,30.80
2018-06-09T07:06:37.026Z,30.70
2018-06-09T07:09:11.858Z,30.50
2018-06-09T07:11:46.737Z,30.60
2018-06-09T07:14:21.171Z,30.60
2018-06-09T07:16:55.695Z,30.70
2018-06-09T07:19:30.657Z,30.80
2018-06-09T07:22:05.108Z,30.80
2018-06-09T07:24:39.757Z,31.00
2018-06-09T07:27:14.193Z,31.00
2018-06-09T07:29:49.129Z,31.10
2018-06-09T07:32:23.830Z,31.20
2018-06-09T07:34:58.291Z,31.20
2018-06-09T07:37:32.875Z,31.00
2018-06-09T07:40:07.742Z,30.70
2018-06-09T07:42:42.284Z,30.20
2018-06-09T07:45:17.353Z,29.90
2018-06-09T07:47:51.653Z,29.70
2018-06-09T07:50:26.663Z,29.60
2018-06-09T07:53:01.609Z,29.40
2018-06-09T07:55:36.425Z,29.10
2018-06-09T07:58:10.989Z,28.80
2018-06-09T08:00:45.464Z,28.40
2018-06-09T08:03:20.027Z,28.00
2018-06-09T08:05:54.552Z,27.50
2018-06-09T08:08:29.616Z,27.20
2018-06-09T08:11:04.337Z,26.90
2018-06-09T08:16:13.322Z,26.50
2018-06-09T08:18:47.935Z,26.20
2018-06-09T08:21:23.293Z,26.10
2018-06-09T08:23:58.328Z,25.90
2018-06-09T08:26:33.153Z,25.80
2018-06-09T08:29:07.587Z,25.80
2018-06-09T08:31:42.421Z,25.80
2018-06-09T08:34:16.832Z,25.80
2018-06-09T08:36:51.895Z,25.80
2018-06-09T08:39:26.326Z,25.80
2018-06-09T08:42:01.276Z,25.80
2018-06-09T08:44:35.499Z,25.70
2018-06-09T08:47:10.269Z,25.70
2018-06-09T08:49:44.975Z,25.70
2018-06-09T08:52:19.866Z,25.80
2018-06-09T08:54:54.314Z,26.10
2018-06-09T08:57:29.152Z,26.20
2018-06-09T09:00:03.911Z,26.30
2018-06-09T09:02:38.537Z,26.40
2018-06-09T09:05:13.353Z,26.50
2018-06-09T09:07:48.146Z,26.70
2018-06-09T09:10:22.631Z,27.20
2018-06-09T09:12:57.778Z,27.60
2018-06-09T09:15:32.888Z,27.90
2018-06-09T09:18:07.774Z,28.20
2018-06-09T09:20:42.074Z,28.20
2018-06-09T09:23:17.141Z,28.10
2018-06-09T09:25:51.409Z,28.00
2018-06-09T09:28:26.232Z,27.90
2018-06-09T09:31:00.575Z,27.80
2018-06-09T09:33:35.473Z,27.60
2018-06-09T09:36:09.975Z,27.60
2018-06-09T09:38:45.111Z,27.60
2018-06-09T09:41:19.540Z,27.70
2018-06-09T09:43:53.996Z,27.80
2018-06-09T09:46:28.511Z,27.90
2018-06-09T09:49:04.788Z,27.90
2018-06-09T09:51:40.259Z,27.70
2018-06-09T09:54:15.427Z,27.50
2018-06-09T09:56:50.093Z,27.60
2018-06-09T09:59:25.022Z,27.80
2018-06-09T10:01:59.198Z,28.10
2018-06-09T10:04:33.823Z,28.50
2018-06-09T10:07:08.431Z,28.60
2018-06-09T10:09:43.538Z,28.60
2018-06-09T10:14:53.613Z,28.40
2018-06-09T10:17:28.074Z,28.50
2018-06-09T10:20:02.830Z,28.70
2018-06-09T10:22:37.246Z,28.60
2018-06-09T10:25:11.754Z,28.40
2018-06-09T10:27:46.272Z,28.40
2018-06-09T10:32:55.275Z,28.90
2018-06-09T10:38:04.657Z,29.00
2018-06-09T10:40:40.153Z,28.80
2018-06-09T10:43:14.655Z,28.60
2018-06-09T10:45:49.292Z,28.30
2018-06-09T10:48:23.645Z,28.30
2018-06-09T10:50:58.398Z,28.60
2018-06-09T10:53:32.642Z,28.80
2018-06-09T10:56:07.567Z,28.90
2018-06-09T10:58:41.873Z,28.80
2018-06-09T11:01:16.849Z,28.70
2018-06-09T11:03:51.591Z,28.70
2018-06-09T11:06:26.237Z,28.80
2018-06-09T11:09:00.584Z,28.90
2018-06-09T11:11:36.421Z,29.00
2018-06-09T11:14:11.619Z,29.10
2018-06-09T11:19:20.974Z,29.30
2018-06-09T11:21:56.007Z,29.40
2018-06-09T11:24:30.235Z,29.50
2018-06-09T11:27:05.303Z,29.50
2018-06-09T11:29:40.818Z,29.30
2018-06-09T11:32:16.522Z,29.10
2018-06-09T11:34:51.764Z,28.90
2018-06-09T11:37:26.205Z,28.60
2018-06-09T11:40:00.830Z,28.30
2018-06-09T11:42:37.481Z,28.00
2018-06-09T11:45:12.139Z,27.90
2018-06-09T11:47:46.894Z,27.70
2018-06-09T11:50:21.439Z,27.60
2018-06-09T11:52:56.071Z,27.40
2018-06-09T11:55:30.737Z,27.20
2018-06-09T11:58:05.736Z,27.10
2018-06-09T12:00:39.978Z,26.90
2018-06-09T12:03:14.793Z,26.80
2018-06-09T12:05:49.479Z,26.70
2018-06-09T12:08:23.720Z,26.70
2018-06-09T12:10:59.500Z,26.60
2018-06-09T12:13:34.673Z,26.60
2018-06-09T12:16:09.440Z,26.60
2018-06-09T12:18:44.053Z,26.60
2018-06-09T12:21:18.605Z,26.70
2018-06-09T12:23:53.049Z,26.80
2018-06-09T12:26:27.645Z,26.90
2018-06-09T12:29:03.806Z,27.00
2018-06-09T12:31:38.109Z,27.00
2018-06-09T12:34:12.986Z,27.00
2018-06-09T12:36:47.185Z,27.00
2018-06-09T12:39:22.458Z,27.10
2018-06-09T12:41:56.780Z,27.10
2018-06-09T12:44:31.290Z,27.20
2018-06-09T12:47:05.865Z,27.20
2018-06-09T12:49:40.420Z,27.30
2018-06-09T12:52:15.455Z,27.30
2018-06-09T12:54:50.195Z,27.40
2018-06-09T12:57:24.781Z,27.40
2018-06-09T12:59:59.527Z,27.40
2018-06-09T13:02:34.087Z,27.40
2018-06-09T13:05:08.838Z,27.30
2018-06-09T13:07:42.937Z,27.20
2018-06-09T13:10:18.142Z,27.10
2018-06-09T13:12:52.858Z,27.10
2018-06-09T13:15:27.157Z,27.10
2018-06-09T13:18:01.997Z,27.10
2018-06-09T13:20:36.653Z,27.20
2018-06-09T13:23:11.020Z,27.30
2018-06-09T13:25:46.327Z,27.40
2018-06-09T13:28:21.317Z,27.50
2018-06-09T13:30:55.673Z,27.50
2018-06-09T13:33:30.313Z,27.50
2018-06-09T13:36:05.232Z,27.50
2018-06-09T13:38:39.722Z,27.50
2018-06-09T13:41:14.325Z,27.50
2018-06-09T13:43:49.704Z,27.50
2018-06-09T13:46:24.567Z,27.50
2018-06-09T13:48:59.005Z,27.60
2018-06-09T13:51:33.997Z,27.50
2018-06-09T13:54:08.461Z,27.50
2018-06-09T13:56:44.054Z,27.50
2018-06-09T13:59:18.989Z,27.40
2018-06-09T14:01:53.357Z,27.40
2018-06-09T14:04:28.018Z,27.40
2018-06-09T14:07:03.038Z,27.50
2018-06-09T14:09:37.395Z,27.50
2018-06-09T14:12:12.066Z,27.50
2018-06-09T14:14:46.902Z,27.60
2018-06-09T14:17:21.680Z,27.60
2018-06-09T14:19:56.299Z,27.60
2018-06-09T14:22:30.932Z,27.70
2018-06-09T14:25:05.604Z,27.80
2018-06-09T14:27:40.563Z,27.90
2018-06-09T14:30:15.735Z,27.90
2018-06-09T14:32:50.311Z,28.00
2018-06-09T14:35:24.887Z,28.00
2018-06-09T14:37:59.660Z,28.10
2018-06-09T14:40:34.613Z,28.10
2018-06-09T14:43:09.100Z,27.90
2018-06-09T14:45:43.437Z,27.70
2018-06-09T14:48:19.130Z,27.40
2018-06-09T14:50:54.090Z,27.20
2018-06-09T14:53:28.435Z,26.90
2018-06-09T14:56:02.859Z,26.60
2018-06-09T14:58:37.445Z,26.30
2018-06-09T15:01:11.981Z,26.00
2018-06-09T15:03:47.045Z,25.80
2018-06-09T15:06:21.319Z,25.70
2018-06-09T15:08:56.256Z,25.50
2018-06-09T15:11:31.351Z,25.40
2018-06-09T15:14:06.246Z,25.30
2018-06-09T15:16:41.183Z,25.10
2018-06-09T15:19:15.999Z,25.00
2018-06-09T15:21:50.066Z,24.90
2018-06-09T15:24:24.784Z,24.80
2018-06-09T15:26:59.431Z,24.80
2018-06-09T15:29:33.965Z,24.80
2018-06-09T15:32:08.374Z,24.80
2018-06-09T15:34:43.098Z,24.80
2018-06-09T15:37:17.833Z,24.90
2018-06-09T15:39:52.310Z,24.90
2018-06-09T15:42:26.610Z,25.00
2018-06-09T15:45:01.374Z,25.20
2018-06-09T15:47:35.682Z,25.30
2018-06-09T15:50:10.177Z,25.40
2018-06-09T15:52:44.504Z,25.50
2018-06-09T15:55:19.225Z,25.50
2018-06-09T15:57:53.749Z,25.50
2018-06-09T16:00:28.453Z,25.60
2018-06-09T16:03:02.959Z,25.60
2018-06-09T16:05:37.591Z,25.60
2018-06-09T16:08:12.538Z,25.50
2018-06-09T16:10:46.721Z,25.30
2018-06-09T16:13:21.407Z,25.20
2018-06-09T16:15:56.165Z,25.10
2018-06-09T16:18:30.885Z,25.00
2018-06-09T16:21:05.356Z,24.90
2018-06-09T16:23:39.726Z,24.80
2018-06-09T16:26:15.270Z,24.70
2018-06-09T16:28:50.588Z,24.50
2018-06-09T16:31:25.513Z,24.30
2018-06-09T16:34:00.019Z,24.20
2018-06-09T16:36:34.786Z,24.00
2018-06-09T16:39:09.309Z,23.90
2018-06-09T16:41:44.358Z,23.80
2018-06-09T16:44:19.277Z,23.70
2018-06-09T16:46:54.429Z,23.60
2018-06-09T16:49:28.780Z,23.60
2018-06-09T16:52:03.890Z,23.50
2018-06-09T16:54:38.366Z,23.50
2018-06-09T16:57:13.368Z,23.40
2018-06-09T16:59:47.962Z,23.40
2018-06-09T17:02:22.746Z,23.40
2018-06-09T17:04:57.826Z,23.30
2018-06-09T17:07:32.680Z,23.40
2018-06-09T17:10:07.409Z,23.40
2018-06-09T17:12:43.042Z,23.40
2018-06-09T17:15:17.369Z,23.40
2018-06-09T17:17:52.415Z,23.40
2018-06-09T17:20:26.827Z,23.40
2018-06-09T17:23:01.418Z,23.30
2018-06-09T17:25:36.377Z,23.30
2018-06-09T17:28:10.870Z,23.30
2018-06-09T17:30:45.539Z,23.20
2018-06-09T17:33:25.225Z,23.30
2018-06-09T17:36:01.565Z,23.20
2018-06-09T17:38:47.837Z,23.30
2018-06-09T17:41:22.612Z,23.30
2018-06-09T17:43:56.955Z,23.30
2018-06-09T17:46:31.484Z,23.30
2018-06-09T17:49:06.157Z,23.30
2018-06-09T17:51:40.889Z,23.30
2018-06-09T17:54:15.680Z,23.40
2018-06-09T17:56:50.361Z,23.40
2018-06-09T17:59:24.997Z,23.40
2018-06-09T18:01:59.610Z,23.40
2018-06-09T18:04:34.422Z,23.40
2018-06-09T18:07:09.268Z,23.40
2018-06-09T18:09:43.661Z,23.40
2018-06-09T18:12:18.475Z,23.40
2018-06-09T18:14:52.830Z,23.40
2018-06-09T18:17:27.510Z,23.40
2018-06-09T18:20:02.477Z,23.40
2018-06-09T18:22:36.995Z,23.30
2018-06-09T18:25:11.833Z,23.30
2018-06-09T18:27:46.450Z,23.30
2018-06-09T18:30:21.177Z,23.30
2018-06-09T18:32:55.513Z,23.20
2018-06-09T18:35:30.289Z,23.20
2018-06-09T18:38:05.005Z,23.20
2018-06-09T18:40:39.901Z,23.10
2018-06-09T18:43:14.271Z,23.10
2018-06-09T18:45:49.449Z,23.10
2018-06-09T18:48:23.723Z,23.00
2018-06-09T18:50:58.374Z,23.00
2018-06-09T18:53:33.084Z,23.00
2018-06-09T18:56:08.273Z,22.90
2018-06-09T18:58:42.659Z,22.90
2018-06-09T19:01:17.431Z,22.90
2018-06-09T19:03:51.715Z,22.80
2018-06-09T19:06:27.189Z,22.80
2018-06-09T19:09:02.806Z,22.70
2018-06-09T19:11:37.321Z,22.70
2018-06-09T19:14:11.957Z,22.60
2018-06-09T19:16:46.831Z,22.60
2018-06-09T19:19:21.158Z,22.50
2018-06-09T19:21:56.200Z,22.40
2018-06-09T19:24:30.634Z,22.30
2018-06-09T19:27:05.229Z,22.30
2018-06-09T19:29:39.975Z,22.30
2018-06-09T19:32:14.863Z,22.20
2018-06-09T19:34:49.114Z,22.20
2018-06-09T19:37:23.817Z,22.10
2018-06-09T19:39:58.210Z,22.10
2018-06-09T19:42:32.834Z,22.10
2018-06-09T19:45:07.608Z,22.10
2018-06-09T19:47:42.229Z,22.10
2018-06-09T19:50:17.214Z,22.10
2018-06-09T19:52:51.894Z,22.10
2018-06-09T19:55:26.278Z,22.10
2018-06-09T19:58:01.243Z,22.10
2018-06-09T20:00:36.403Z,22.10
2018-06-09T20:03:11.389Z,22.00
2018-06-09T20:05:46.097Z,22.00
2018-06-09T20:08:20.932Z,22.00
2018-06-09T20:10:55.308Z,22.00
2018-06-09T20:13:30.243Z,21.90
2018-06-09T20:16:04.988Z,22.00
2018-06-09T20:18:39.695Z,21.90
2018-06-09T20:21:14.309Z,21.90
2018-06-09T20:23:49.262Z,21.90
2018-06-09T20:26:23.479Z,21.90
2018-06-09T20:28:58.180Z,21.90
2018-06-09T20:31:32.913Z,21.90
2018-06-09T20:34:07.503Z,21.90
2018-06-09T20:36:42.358Z,21.90
2018-06-09T20:39:17.036Z,21.90
2018-06-09T20:41:51.822Z,21.90
2018-06-09T20:44:26.300Z,21.90
2018-06-09T20:47:01.169Z,21.90
2018-06-09T20:49:35.894Z,21.90
2018-06-09T20:52:10.350Z,22.00
2018-06-09T20:54:45.286Z,22.00
2018-06-09T20:57:19.714Z,22.00
2018-06-09T20:59:54.330Z,22.00
2018-06-09T21:02:29.143Z,22.00
2018-06-09T21:05:04.029Z,22.00
2018-06-09T21:07:38.531Z,22.00
2018-06-09T21:10:13.024Z,22.00
2018-06-09T21:12:47.406Z,22.00
2018-06-09T21:15:22.378Z,22.10
2018-06-09T21:17:56.965Z,22.10
2018-06-09T21:20:31.560Z,22.10
2018-06-09T21:23:06.305Z,22.10
2018-06-09T21:25:40.797Z,22.10
2018-06-09T21:28:26.818Z,22.10
2018-06-09T21:31:07.423Z,22.10
2018-06-09T21:34:03.520Z,22.10
2018-06-09T21:36:43.402Z,22.10
2018-06-09T21:39:27.482Z,22.10
2018-06-09T21:42:08.098Z,22.10
2018-06-09T21:44:46.689Z,22.10
2018-06-09T21:47:21.623Z,22.10
2018-06-09T21:49:56.102Z,22.00
2018-06-09T21:52:30.789Z,22.00
2018-06-09T21:55:05.626Z,22.00
2018-06-09T21:57:40.273Z,22.00
2018-06-09T22:00:14.692Z,21.90
2018-06-09T22:02:49.553Z,21.90
2018-06-09T22:05:23.917Z,21.90
2018-06-09T22:07:59.096Z,21.90
2018-06-09T22:10:34.307Z,21.80
2018-06-09T22:13:09.382Z,21.80
2018-06-09T22:15:43.570Z,21.80
2018-06-09T22:18:18.473Z,21.80
2018-06-09T22:20:53.130Z,21.80
2018-06-09T22:23:27.772Z,21.70
2018-06-09T22:26:02.670Z,21.70
2018-06-09T22:28:37.557Z,21.60
2018-06-09T22:31:12.722Z,21.60
2018-06-09T22:33:47.216Z,21.50
2018-06-09T22:36:21.810Z,21.50
2018-06-09T22:38:56.540Z,21.40
2018-06-09T22:41:31.123Z,21.40
2018-06-09T22:44:08.932Z,21.30
2018-06-09T22:46:44.125Z,21.30
2018-06-09T22:49:18.768Z,21.20
2018-06-09T22:51:53.132Z,21.10
2018-06-09T22:54:28.345Z,21.00
2018-06-09T22:57:02.733Z,20.90
2018-06-09T22:59:37.373Z,20.80
2018-06-09T23:02:12.085Z,20.70
2018-06-09T23:04:46.913Z,20.70
2018-06-09T23:09:56.373Z,20.50
2018-06-09T23:12:31.357Z,20.50
2018-06-09T23:15:05.645Z,20.40
2018-06-09T23:17:40.757Z,20.40
2018-06-09T23:20:15.280Z,20.30
2018-06-09T23:22:49.947Z,20.30
2018-06-09T23:25:24.713Z,20.20
2018-06-09T23:27:59.402Z,20.20
2018-06-09T23:30:34.005Z,20.20
2018-06-09T23:33:08.693Z,20.20
2018-06-09T23:35:43.143Z,20.20
2018-06-09T23:38:17.813Z,20.20
2018-06-09T23:40:52.629Z,20.20
2018-06-09T23:43:26.904Z,20.20
2018-06-09T23:46:02.961Z,20.10
2018-06-09T23:48:38.531Z,20.10
2018-06-09T23:53:48.817Z,20.10
2018-06-09T23:56:24.383Z,20.20
2018-06-09T23:58:59.295Z,20.20
